createdAt,value
2022-11-23T00:03:01.111Z,72.97
2022-11-23T00:06:04.190Z,73.10
2022-11-23T00:09:08.557Z,69.70
2022-11-23T00:12:12.389Z,81.23
2022-11-23T00:15:16.551Z,79.23
2022-11-23T00:18:20.953Z,78.73
2022-11-23T00:21:26.302Z,71.60
2022-11-23T00:24:29.431Z,72.97
2022-11-23T00:27:32.574Z,72.30
2022-11-23T00:30:35.528Z,82.80
2022-11-23T00:33:40.465Z,84.73
2022-11-23T00:36:43.490Z,81.73
2022-11-23T00:39:47.022Z,66.47
2022-11-23T00:42:50.343Z,85.77
2022-11-23T00:46:04.987Z,86.20
2022-11-23T00:49:09.990Z,82.77
2022-11-23T00:52:14.814Z,77.10
2022-11-23T00:55:18.085Z,81.77
2022-11-23T00:58:21.585Z,83.90
2022-11-23T01:01:27.059Z,78.67
2022-11-23T01:04:31.527Z,84.23
2022-11-23T01:07:36.355Z,77.57
2022-11-23T01:10:44.920Z,86.63
2022-11-23T01:13:48.838Z,82.73
2022-11-23T01:16:51.925Z,79.60
2022-11-23T01:19:56.225Z,78.47
2022-11-23T01:22:59.179Z,77.37
2022-11-23T01:26:06.888Z,74.03
2022-11-23T01:29:09.840Z,75.03
2022-11-23T01:32:14.608Z,78.60
2022-11-23T01:35:19.142Z,76.97
2022-11-23T01:38:22.702Z,77.17
2022-11-23T01:41:30.914Z,70.23
2022-11-23T01:44:36.131Z,81.07
2022-11-23T01:47:39.093Z,80.73
2022-11-23T01:50:45.992Z,76.67
2022-11-23T01:53:52.592Z,73.77
2022-11-23T01:57:02.149Z,81.07
2022-11-23T02:00:07.572Z,78.67
2022-11-23T02:03:17.005Z,74.63
2022-11-23T02:06:22.392Z,80.63
2022-11-23T02:09:25.782Z,74.47
2022-11-23T02:12:28.752Z,83.90
2022-11-23T02:15:35.296Z,77.07
2022-11-23T02:18:42.575Z,80.83
2022-11-23T02:21:48.697Z,84.40
2022-11-23T02:24:56.164Z,84.30
2022-11-23T02:28:04.114Z,78.43
2022-11-23T02:31:07.119Z,81.70
2022-11-23T02:34:10.712Z,81.10
2022-11-23T02:37:14.247Z,84.80
2022-11-23T02:40:27.280Z,79.97
2022-11-23T02:43:31.647Z,81.43
2022-11-23T02:46:34.919Z,77.70
2022-11-23T02:49:38.378Z,79.87
2022-11-23T02:52:41.641Z,80.87
2022-11-23T02:55:44.914Z,76.73
2022-11-23T02:58:49.381Z,84.03
2022-11-23T03:01:53.237Z,77.83
2022-11-23T03:04:56.448Z,77.47
2022-11-23T03:07:59.682Z,76.17
2022-11-23T03:11:05.169Z,89.20
2022-11-23T03:14:10.158Z,79.23
2022-11-23T03:17:22.996Z,78.67
2022-11-23T03:20:26.345Z,83.00
2022-11-23T03:23:30.009Z,78.97
2022-11-23T03:26:33.609Z,77.47
2022-11-23T03:29:45.942Z,76.57
2022-11-23T03:32:54.362Z,76.27
2022-11-23T03:35:57.466Z,74.73
2022-11-23T03:39:05.379Z,77.30
2022-11-23T03:42:28.388Z,72.97
2022-11-23T03:45:34.080Z,78.77
2022-11-23T03:48:37.258Z,74.67
2022-11-23T03:51:40.723Z,67.40
2022-11-23T03:54:44.350Z,76.43
2022-11-23T03:57:49.321Z,64.63
2022-11-23T04:00:53.870Z,68.20
2022-11-23T04:03:57.848Z,72.50
2022-11-23T04:07:21.127Z,69.70
2022-11-23T04:10:27.700Z,69.83
2022-11-23T04:13:39.625Z,74.53
2022-11-23T04:16:45.846Z,67.20
2022-11-23T04:19:48.837Z,73.77
2022-11-23T04:22:52.294Z,68.60
2022-11-23T04:25:55.553Z,68.30
2022-11-23T04:29:00.080Z,66.33
2022-11-23T04:32:05.127Z,67.53
2022-11-23T04:35:09.549Z,64.17
2022-11-23T04:38:13.793Z,73.17
2022-11-23T04:41:18.785Z,74.97
2022-11-23T04:44:22.057Z,70.07
2022-11-23T04:47:30.666Z,68.70
2022-11-23T04:50:44.645Z,72.17
2022-11-23T04:53:52.195Z,70.70
2022-11-23T04:56:56.555Z,66.03
2022-11-23T04:59:59.670Z,72.70
2022-11-23T05:03:05.761Z,63.90
2022-11-23T05:06:11.796Z,63.03
2022-11-23T05:09:18.290Z,67.80
2022-11-23T05:12:34.049Z,68.43
2022-11-23T05:15:37.697Z,71.40
2022-11-23T05:18:42.287Z,74.23
2022-11-23T05:21:45.954Z,67.97
2022-11-23T05:24:50.914Z,71.27
2022-11-23T05:27:59.198Z,72.57
2022-11-23T05:31:07.437Z,69.27
2022-11-23T05:34:11.891Z,70.07
2022-11-23T05:37:21.643Z,68.17
2022-11-23T05:40:30.076Z,67.70
2022-11-23T05:43:35.606Z,73.50
2022-11-23T05:46:38.843Z,64.83
2022-11-23T05:49:43.484Z,71.63
2022-11-23T05:52:47.745Z,67.57
2022-11-23T05:55:50.711Z,75.43
2022-11-23T05:58:57.037Z,69.17
2022-11-23T06:02:00.135Z,59.20
2022-11-23T06:05:10.091Z,62.03
2022-11-23T06:08:21.252Z,66.50
2022-11-23T06:11:25.073Z,65.47
2022-11-23T06:14:29.583Z,67.27
2022-11-23T06:17:33.410Z,61.53
2022-11-23T06:20:42.594Z,65.87
2022-11-23T06:23:47.663Z,64.77
2022-11-23T06:26:51.150Z,62.20
2022-11-23T06:29:54.265Z,62.33
2022-11-23T06:33:05.395Z,64.53
2022-11-23T06:36:16.404Z,67.43
2022-11-23T06:39:24.040Z,67.00
2022-11-23T06:42:42.569Z,65.73
2022-11-23T06:45:58.069Z,64.67
2022-11-23T06:49:04.614Z,62.93
2022-11-23T06:52:09.346Z,64.27
2022-11-23T06:55:12.456Z,63.27
2022-11-23T06:58:18.273Z,54.77
2022-11-23T07:01:23.056Z,61.17
2022-11-23T07:04:31.899Z,60.37
2022-11-23T07:07:36.528Z,59.67
2022-11-23T07:10:46.468Z,65.23
2022-11-23T07:13:52.155Z,59.40
2022-11-23T07:16:55.373Z,57.70
2022-11-23T07:19:58.798Z,56.87
2022-11-23T07:23:05.930Z,62.87
2022-11-23T07:26:09.672Z,60.63
2022-11-23T07:29:12.894Z,67.23
2022-11-23T07:32:16.331Z,62.03
2022-11-23T07:35:21.485Z,59.77
2022-11-23T07:38:25.999Z,61.77
2022-11-23T07:41:29.220Z,54.43
2022-11-23T07:44:41.144Z,57.03
2022-11-23T07:47:46.840Z,62.97
2022-11-23T07:50:49.793Z,62.37
2022-11-23T07:53:54.087Z,64.87
2022-11-23T07:56:57.022Z,65.60
2022-11-23T07:59:59.957Z,62.00
2022-11-23T08:06:26.219Z,64.23
2022-11-23T08:09:30.599Z,70.20
2022-11-23T08:12:33.573Z,67.97
2022-11-23T08:15:37.166Z,70.70
2022-11-23T08:18:40.132Z,67.13
2022-11-23T08:21:43.092Z,66.47
2022-11-23T08:24:47.975Z,65.47
2022-11-23T08:27:56.772Z,72.53
2022-11-23T08:31:00.330Z,73.67
2022-11-23T08:34:03.905Z,71.47
2022-11-23T08:37:07.063Z,63.50
2022-11-23T08:40:13.717Z,61.00
2022-11-23T08:43:16.644Z,63.30
2022-11-23T08:46:19.630Z,68.17
2022-11-23T08:49:22.559Z,63.90
2022-11-23T08:52:27.107Z,62.50
2022-11-23T08:55:32.290Z,66.27
2022-11-23T08:58:37.977Z,66.43
2022-11-23T09:01:40.999Z,61.03
2022-11-23T09:04:44.113Z,63.80
2022-11-23T09:07:47.159Z,61.53
2022-11-23T09:10:51.526Z,59.23
2022-11-23T09:13:54.745Z,60.40
2022-11-23T09:17:02.729Z,56.00
2022-11-23T09:20:07.643Z,53.47
2022-11-23T09:23:14.282Z,57.47
2022-11-23T09:26:18.920Z,55.50
2022-11-23T09:29:22.546Z,58.43
2022-11-23T09:32:26.611Z,48.10
2022-11-23T09:35:29.816Z,53.00
2022-11-23T09:38:55.174Z,54.87
2022-11-23T09:42:27.861Z,47.87
2022-11-23T09:45:38.889Z,47.23
2022-11-23T09:48:56.908Z,42.00
2022-11-23T09:52:16.347Z,46.37
2022-11-23T09:55:26.259Z,45.83
2022-11-23T09:58:37.406Z,44.00
2022-11-23T10:01:40.506Z,42.00
2022-11-23T10:04:45.588Z,50.33
2022-11-23T10:08:04.298Z,51.00
2022-11-23T10:11:45.229Z,44.93
2022-11-23T10:15:12.105Z,44.30
2022-11-23T10:18:31.662Z,45.00
2022-11-23T10:21:44.322Z,40.40
2022-11-23T10:24:51.097Z,46.93
2022-11-23T10:27:59.849Z,42.33
2022-11-23T10:31:14.240Z,41.00
2022-11-23T10:34:20.722Z,41.43
2022-11-23T10:37:23.854Z,36.10
2022-11-23T10:40:30.251Z,43.80
2022-11-23T10:43:39.693Z,34.80
2022-11-23T10:46:44.227Z,36.43
2022-11-23T10:49:59.752Z,41.17
2022-11-23T10:53:21.200Z,37.67
2022-11-23T10:56:25.097Z,40.77
2022-11-23T10:59:37.876Z,38.83
2022-11-23T11:02:46.062Z,41.53
2022-11-23T11:09:22.113Z,40.27
2022-11-23T11:12:27.620Z,36.20
2022-11-23T11:15:36.222Z,35.87
2022-11-23T11:18:43.197Z,34.90
2022-11-23T11:21:46.305Z,34.03
2022-11-23T11:24:49.981Z,33.53
2022-11-23T11:27:53.668Z,29.67
2022-11-23T11:31:11.980Z,29.97
2022-11-23T11:34:23.716Z,32.13
2022-11-23T11:37:36.267Z,39.27
2022-11-23T11:40:46.667Z,29.17
2022-11-23T11:43:55.719Z,37.10
2022-11-23T11:47:03.182Z,33.67
2022-11-23T11:50:21.713Z,33.40
2022-11-23T11:53:32.379Z,31.87
2022-11-23T11:56:40.458Z,30.13
2022-11-23T11:59:47.367Z,32.43
2022-11-23T12:03:05.914Z,32.73
2022-11-23T12:06:25.179Z,32.63
2022-11-23T12:09:35.911Z,30.13
2022-11-23T12:12:42.973Z,34.87
2022-11-23T12:15:50.944Z,31.27
2022-11-23T12:19:11.372Z,29.07
2022-11-23T12:22:45.139Z,30.97
2022-11-23T12:25:59.263Z,31.23
2022-11-23T12:29:35.266Z,27.13
2022-11-23T12:32:52.078Z,26.33
2022-11-23T12:36:28.490Z,29.13
2022-11-23T12:39:59.797Z,32.60
2022-11-23T12:43:07.476Z,26.13
2022-11-23T12:46:20.149Z,27.47
2022-11-23T12:49:39.060Z,33.23
2022-11-23T12:53:00.951Z,28.10
2022-11-23T12:56:15.462Z,26.77
2022-11-23T12:59:19.600Z,26.57
2022-11-23T13:03:15.497Z,26.47
2022-11-23T13:07:27.343Z,26.83
2022-11-23T13:10:46.421Z,23.00
2022-11-23T13:14:13.843Z,23.80
2022-11-23T13:17:33.617Z,25.20
2022-11-23T13:21:10.319Z,28.70
2022-11-23T13:24:34.374Z,24.60
2022-11-23T13:28:24.733Z,23.43
2022-11-23T13:31:50.870Z,24.53
2022-11-23T13:35:42.075Z,25.37
2022-11-23T13:38:55.864Z,25.27
2022-11-23T13:42:02.587Z,22.97
2022-11-23T13:45:25.750Z,23.20
2022-11-23T13:52:08.340Z,27.07
2022-11-23T13:55:23.015Z,26.23
2022-11-23T13:58:40.453Z,29.50
2022-11-23T14:02:29.807Z,26.10
2022-11-23T14:06:00.605Z,25.20
2022-11-23T14:09:12.294Z,26.03
2022-11-23T14:12:23.820Z,20.67
2022-11-23T14:15:31.355Z,25.57
2022-11-23T14:18:57.185Z,23.30
2022-11-23T14:22:09.938Z,24.67
2022-11-23T14:25:33.638Z,24.23
2022-11-23T14:28:52.431Z,22.40
2022-11-23T14:32:26.919Z,27.30
2022-11-23T14:35:34.040Z,21.63
2022-11-23T14:39:03.252Z,26.57
2022-11-23T14:42:14.133Z,22.93
2022-11-23T14:45:21.831Z,24.43
2022-11-23T14:48:30.356Z,28.27
2022-11-23T14:51:37.354Z,27.53
2022-11-23T14:54:48.026Z,26.20
2022-11-23T14:57:54.912Z,25.30
2022-11-23T15:01:04.624Z,31.30
2022-11-23T15:04:10.822Z,30.93
2022-11-23T15:07:20.028Z,29.67
2022-11-23T15:10:38.432Z,34.30
2022-11-23T15:13:46.670Z,25.63
2022-11-23T15:16:49.882Z,25.73
2022-11-23T15:19:58.594Z,28.07
2022-11-23T15:23:02.240Z,26.83
2022-11-23T15:26:28.540Z,23.20
2022-11-23T15:29:39.872Z,32.50
2022-11-23T15:32:43.123Z,34.90
2022-11-23T15:35:46.587Z,45.50
2022-11-23T15:38:50.265Z,39.70
2022-11-23T15:41:55.661Z,37.07
2022-11-23T15:44:58.958Z,41.00
2022-11-23T15:48:02.437Z,32.40
2022-11-23T15:51:09.659Z,33.57
2022-11-23T15:54:19.944Z,35.37
2022-11-23T15:57:28.168Z,25.63
2022-11-23T16:00:31.705Z,34.17
2022-11-23T16:03:42.454Z,31.23
2022-11-23T16:06:49.402Z,33.73
2022-11-23T16:10:15.403Z,28.57
2022-11-23T16:13:39.947Z,32.87
2022-11-23T16:16:46.947Z,33.27
2022-11-23T16:19:51.989Z,33.43
2022-11-23T16:22:55.463Z,35.37
2022-11-23T16:26:01.324Z,34.50
2022-11-23T16:29:05.853Z,31.80
2022-11-23T16:32:25.041Z,36.63
2022-11-23T16:35:30.833Z,41.03
2022-11-23T16:38:33.765Z,40.27
2022-11-23T16:41:37.162Z,42.83
2022-11-23T16:44:42.184Z,39.57
2022-11-23T16:47:54.452Z,41.63
2022-11-23T16:50:58.543Z,42.03
2022-11-23T16:54:13.484Z,42.93
2022-11-23T16:57:25.265Z,40.23
2022-11-23T17:00:30.844Z,38.47
2022-11-23T17:03:34.905Z,42.37
2022-11-23T17:06:38.434Z,38.97
2022-11-23T17:09:41.436Z,43.20
2022-11-23T17:12:52.125Z,45.07
2022-11-23T17:15:56.685Z,44.83
2022-11-23T17:18:59.745Z,48.20
2022-11-23T17:25:31.894Z,51.00
2022-11-23T17:28:36.060Z,51.80
2022-11-23T17:31:39.071Z,52.70
2022-11-23T17:34:42.594Z,51.40
2022-11-23T17:37:46.889Z,50.00
2022-11-23T17:40:51.218Z,51.03
2022-11-23T17:43:54.603Z,53.97
2022-11-23T17:47:00.787Z,50.27
2022-11-23T17:50:04.032Z,53.57
2022-11-23T17:53:09.314Z,53.60
2022-11-23T17:56:19.659Z,58.80
2022-11-23T17:59:22.677Z,56.20
2022-11-23T18:02:25.876Z,50.93
2022-11-23T18:05:29.838Z,54.83
2022-11-23T18:08:32.919Z,50.70
2022-11-23T18:11:39.354Z,60.10
2022-11-23T18:14:44.559Z,64.93
2022-11-23T18:17:47.577Z,63.37
2022-11-23T18:20:50.816Z,55.77
2022-11-23T18:23:53.919Z,61.07
2022-11-23T18:26:58.260Z,59.10
2022-11-23T18:30:01.189Z,57.97
2022-11-23T18:33:04.378Z,58.70
2022-11-23T18:36:09.034Z,61.13
2022-11-23T18:39:12.030Z,66.27
2022-11-23T18:42:16.376Z,65.53
2022-11-23T18:45:19.468Z,67.33
2022-11-23T18:48:23.175Z,61.27
2022-11-23T18:51:26.915Z,58.33
2022-11-23T18:54:34.824Z,64.97
2022-11-23T18:57:39.133Z,60.63
2022-11-23T19:00:42.674Z,67.27
2022-11-23T19:03:48.545Z,63.43
2022-11-23T19:06:51.738Z,62.23
2022-11-23T19:09:55.672Z,62.77
2022-11-23T19:13:05.053Z,59.87
2022-11-23T19:16:14.227Z,61.23
2022-11-23T19:19:18.909Z,69.60
2022-11-23T19:22:21.916Z,62.50
2022-11-23T19:25:24.964Z,63.83
2022-11-23T19:28:29.238Z,64.97
2022-11-23T19:31:33.451Z,60.23
2022-11-23T19:34:36.406Z,57.70
2022-11-23T19:37:39.785Z,62.53
2022-11-23T19:40:42.921Z,66.13
2022-11-23T19:43:52.970Z,64.23
2022-11-23T19:46:56.495Z,65.03
2022-11-23T19:50:01.315Z,62.57
2022-11-23T19:53:12.461Z,63.20
2022-11-23T19:56:19.485Z,62.70
2022-11-23T19:59:25.168Z,62.03
2022-11-23T20:02:29.982Z,61.87
2022-11-23T20:05:33.759Z,68.07
2022-11-23T20:08:37.321Z,63.17
2022-11-23T20:11:43.047Z,69.40
2022-11-23T20:14:49.402Z,64.47
2022-11-23T20:17:52.599Z,56.70
2022-11-23T20:20:55.673Z,63.40
2022-11-23T20:24:04.683Z,60.30
2022-11-23T20:27:13.478Z,69.07
2022-11-23T20:30:18.901Z,62.70
2022-11-23T20:33:22.196Z,64.53
2022-11-23T20:36:27.840Z,70.77
2022-11-23T20:39:30.779Z,69.43
2022-11-23T20:42:33.833Z,71.33
2022-11-23T20:45:38.257Z,69.57
2022-11-23T20:48:44.720Z,67.17
2022-11-23T20:51:47.764Z,75.73
2022-11-23T20:54:51.054Z,71.30
2022-11-23T20:57:55.399Z,75.73
2022-11-23T21:01:07.620Z,72.53
2022-11-23T21:04:10.706Z,69.83
2022-11-23T21:07:14.009Z,76.33
2022-11-23T21:10:31.721Z,78.77
2022-11-23T21:13:52.506Z,76.50
2022-11-23T21:16:59.421Z,82.30
2022-11-23T21:20:02.528Z,79.90
2022-11-23T21:23:05.734Z,83.00
2022-11-23T21:26:08.754Z,83.53
2022-11-23T21:29:12.270Z,76.50
2022-11-23T21:32:16.596Z,79.60
2022-11-23T21:35:19.682Z,85.70
2022-11-23T21:38:31.156Z,75.43
2022-11-23T21:41:34.462Z,85.40
2022-11-23T21:44:37.432Z,85.17
2022-11-23T21:47:42.130Z,86.87
2022-11-23T21:50:45.068Z,85.50
2022-11-23T21:53:48.390Z,90.70
2022-11-23T21:56:51.332Z,90.20
2022-11-23T21:59:54.575Z,96.17
2022-11-23T22:02:59.817Z,94.00
2022-11-23T22:06:02.838Z,109.23
2022-11-23T22:09:09.163Z,101.93
2022-11-23T22:12:15.278Z,111.30
2022-11-23T22:15:18.278Z,124.00
2022-11-23T22:18:22.641Z,142.60
2022-11-23T22:21:28.234Z,126.27
2022-11-23T22:24:32.133Z,146.00
2022-11-23T22:27:37.036Z,204.87
2022-11-23T22:30:40.120Z,166.57
2022-11-23T22:33:44.863Z,135.13
2022-11-23T22:36:53.160Z,170.83
2022-11-23T22:39:58.833Z,217.00
2022-11-23T22:43:01.792Z,134.60
2022-11-23T22:46:07.063Z,191.63
2022-11-23T22:49:11.425Z,159.20
2022-11-23T22:52:14.544Z,202.03
2022-11-23T22:55:17.679Z,200.57
2022-11-23T22:58:21.626Z,141.73
2022-11-23T23:01:27.382Z,191.40
2022-11-23T23:04:31.941Z,169.23
2022-11-23T23:07:35.263Z,171.60
2022-11-23T23:10:39.721Z,201.37
2022-11-23T23:13:47.616Z,209.70
2022-11-23T23:16:50.708Z,198.70
2022-11-23T23:19:59.361Z,155.47
2022-11-23T23:23:02.577Z,193.53
2022-11-23T23:26:05.821Z,155.83
2022-11-23T23:29:10.354Z,205.77
2022-11-23T23:32:13.436Z,195.73
2022-11-23T23:35:18.085Z,190.53
2022-11-23T23:38:21.072Z,149.20
2022-11-23T23:41:25.993Z,184.50
2022-11-23T23:44:29.021Z,198.17
2022-11-23T23:47:34.827Z,183.93
2022-11-23T23:50:39.391Z,195.13
2022-11-23T23:53:43.672Z,176.53
2022-11-23T23:56:49.261Z,165.83
2022-11-23T23:59:52.229Z,174.63
